createdAt,value
2022-09-26T00:00:45.779Z,83.31
2022-09-26T00:03:13.527Z,83.13
2022-09-26T00:05:42.491Z,83.07
2022-09-26T00:08:10.708Z,82.78
2022-09-26T00:10:38.307Z,82.71
2022-09-26T00:13:05.919Z,82.56
2022-09-26T00:15:33.540Z,82.03
2022-09-26T00:18:01.155Z,81.78
2022-09-26T00:20:28.840Z,81.81
2022-09-26T00:22:57.976Z,81.95
2022-09-26T00:25:26.960Z,82.04
2022-09-26T00:27:54.587Z,82.61
2022-09-26T00:30:22.197Z,83.49
2022-09-26T00:32:49.829Z,83.69
2022-09-26T00:35:17.523Z,84.39
2022-09-26T00:37:45.137Z,83.89
2022-09-26T00:40:14.076Z,83.11
2022-09-26T00:42:41.712Z,83.18
2022-09-26T00:45:11.712Z,82.27
2022-09-26T00:47:47.116Z,81.39
2022-09-26T00:50:19.644Z,81.23
2022-09-26T00:52:51.782Z,81.54
2022-09-26T00:55:24.887Z,81.26
2022-09-26T00:57:58.769Z,80.83
2022-09-26T01:00:27.333Z,81.10
2022-09-26T01:02:55.436Z,81.21
2022-09-26T01:05:24.898Z,81.32
2022-09-26T01:07:54.586Z,81.92
2022-09-26T01:10:24.504Z,81.98
2022-09-26T01:12:52.308Z,82.06
2022-09-26T01:15:20.274Z,81.82
2022-09-26T01:17:48.273Z,81.19
2022-09-26T01:20:27.625Z,80.06
2022-09-26T01:23:34.963Z,80.08
2022-09-26T01:26:39.886Z,80.85
2022-09-26T01:30:01.276Z,81.17
2022-09-26T01:32:50.879Z,80.31
2022-09-26T01:35:34.465Z,80.21
2022-09-26T01:38:12.698Z,79.79
2022-09-26T01:40:48.525Z,79.08
2022-09-26T01:43:26.625Z,79.32
2022-09-26T01:46:00.077Z,79.48
2022-09-26T01:48:33.430Z,79.29
2022-09-26T01:51:05.904Z,79.22
2022-09-26T01:53:41.290Z,79.31
2022-09-26T01:56:14.695Z,79.43
2022-09-26T01:58:46.967Z,79.98
2022-09-26T02:01:18.126Z,80.27
2022-09-26T02:03:52.950Z,81.35
2022-09-26T02:06:25.059Z,82.46
2022-09-26T02:08:58.396Z,82.22
2022-09-26T02:11:26.279Z,82.34
2022-09-26T02:14:02.548Z,82.80
2022-09-26T02:16:36.793Z,82.87
2022-09-26T02:19:12.088Z,83.18
2022-09-26T02:21:39.998Z,83.44
2022-09-26T02:24:07.748Z,83.62
2022-09-26T02:26:35.575Z,83.65
2022-09-26T02:29:03.293Z,83.49
2022-09-26T02:31:35.538Z,83.40
2022-09-26T02:34:05.587Z,83.40
2022-09-26T02:36:34.405Z,82.48
2022-09-26T02:39:02.588Z,82.15
2022-09-26T02:41:40.828Z,82.06
2022-09-26T02:44:29.580Z,81.58
2022-09-26T02:47:35.090Z,81.71
2022-09-26T02:50:25.061Z,81.63
2022-09-26T02:53:01.318Z,81.51
2022-09-26T02:55:39.282Z,81.50
2022-09-26T02:58:16.712Z,81.44
2022-09-26T03:00:57.524Z,80.97
2022-09-26T03:03:32.955Z,80.51
2022-09-26T03:06:04.118Z,80.30
2022-09-26T03:08:37.339Z,79.45
2022-09-26T03:11:10.803Z,78.89
2022-09-26T03:13:40.345Z,79.06
2022-09-26T03:16:11.071Z,78.09
2022-09-26T03:18:45.447Z,78.28
2022-09-26T03:21:14.873Z,78.26
2022-09-26T03:23:42.637Z,77.87
2022-09-26T03:26:12.428Z,77.44
2022-09-26T03:28:40.050Z,78.01
2022-09-26T03:31:07.851Z,78.34
2022-09-26T03:33:35.493Z,78.36
2022-09-26T03:36:07.495Z,79.07
2022-09-26T03:38:36.512Z,79.30
2022-09-26T03:41:04.269Z,80.46
2022-09-26T03:43:32.234Z,81.37
2022-09-26T03:46:04.369Z,81.57
2022-09-26T03:48:32.312Z,82.04
2022-09-26T03:51:03.280Z,81.31
2022-09-26T03:53:32.727Z,80.49
2022-09-26T03:56:06.225Z,80.26
2022-09-26T03:58:34.466Z,79.77
2022-09-26T04:01:06.313Z,79.62
2022-09-26T04:03:35.145Z,79.82
2022-09-26T04:06:03.332Z,80.15
2022-09-26T04:08:31.285Z,79.76
2022-09-26T04:11:03.894Z,80.23
2022-09-26T04:13:50.881Z,81.37
2022-09-26T04:16:20.964Z,82.28
2022-09-26T04:18:49.095Z,82.89
2022-09-26T04:21:16.984Z,83.17
2022-09-26T04:23:45.396Z,83.75
2022-09-26T04:26:20.183Z,84.06
2022-09-26T04:28:52.103Z,84.92
2022-09-26T04:31:21.341Z,85.28
2022-09-26T04:33:49.041Z,85.65
2022-09-26T04:36:17.665Z,86.00
2022-09-26T04:38:45.376Z,85.95
2022-09-26T04:41:14.918Z,85.47
2022-09-26T04:43:42.976Z,86.24
2022-09-26T04:46:18.442Z,86.18
2022-09-26T04:48:49.114Z,85.88
2022-09-26T04:51:18.084Z,86.35
2022-09-26T04:53:45.944Z,85.89
2022-09-26T04:56:15.714Z,84.80
2022-09-26T04:58:44.424Z,83.32
2022-09-26T05:01:15.711Z,82.85
2022-09-26T05:03:44.181Z,83.02
2022-09-26T05:06:12.707Z,83.30
2022-09-26T05:08:42.563Z,83.50
2022-09-26T05:11:10.805Z,83.84
2022-09-26T05:13:38.883Z,83.98
2022-09-26T05:16:08.617Z,84.78
2022-09-26T05:18:39.121Z,84.90
2022-09-26T05:21:07.809Z,85.04
2022-09-26T05:23:53.842Z,85.06
2022-09-26T05:26:25.196Z,85.03
2022-09-26T05:28:55.372Z,85.28
2022-09-26T05:31:25.587Z,85.94
2022-09-26T05:33:56.454Z,85.77
2022-09-26T05:36:24.762Z,85.43
2022-09-26T05:38:52.650Z,84.67
2022-09-26T05:41:20.274Z,84.37
2022-09-26T05:43:48.201Z,84.69
2022-09-26T05:46:16.929Z,84.76
2022-09-26T05:48:44.552Z,85.87
2022-09-26T05:51:15.561Z,85.96
2022-09-26T05:53:45.487Z,86.18
2022-09-26T05:56:18.518Z,85.89
2022-09-26T05:58:47.323Z,86.17
2022-09-26T06:01:16.727Z,85.93
2022-09-26T06:03:45.682Z,85.64
2022-09-26T06:06:16.427Z,85.91
2022-09-26T06:08:44.567Z,86.37
2022-09-26T06:11:13.905Z,86.25
2022-09-26T06:13:44.034Z,86.43
2022-09-26T06:16:14.845Z,86.38
2022-09-26T06:18:42.809Z,85.63
2022-09-26T06:21:13.448Z,85.19
2022-09-26T06:23:42.612Z,84.86
2022-09-26T06:26:14.871Z,84.82
2022-09-26T06:28:42.646Z,84.72
2022-09-26T06:31:11.090Z,84.02
2022-09-26T06:33:38.910Z,84.21
2022-09-26T06:36:08.708Z,84.18
2022-09-26T06:38:36.810Z,83.67
2022-09-26T06:41:07.320Z,83.87
2022-09-26T06:43:35.601Z,83.86
2022-09-26T06:46:03.245Z,83.58
2022-09-26T06:48:30.936Z,83.30
2022-09-26T06:51:00.383Z,83.21
2022-09-26T06:53:28.811Z,83.62
2022-09-26T06:55:56.473Z,83.38
2022-09-26T06:58:25.987Z,83.69
2022-09-26T07:00:53.625Z,83.81
2022-09-26T07:03:22.331Z,84.15
2022-09-26T07:05:51.685Z,83.29
2022-09-26T07:08:19.230Z,82.87
2022-09-26T07:10:47.166Z,82.66
2022-09-26T07:13:17.059Z,82.41
2022-09-26T07:15:47.673Z,83.06
2022-09-26T07:18:15.331Z,82.77
2022-09-26T07:20:47.806Z,82.33
2022-09-26T07:23:16.367Z,82.22
2022-09-26T07:25:46.020Z,81.73
2022-09-26T07:28:14.245Z,80.59
2022-09-26T07:30:41.898Z,80.41
2022-09-26T07:33:10.782Z,80.03
2022-09-26T07:35:38.828Z,79.68
2022-09-26T07:38:06.485Z,78.28
2022-09-26T07:40:34.220Z,78.67
2022-09-26T07:43:19.659Z,77.84
2022-09-26T07:46:05.778Z,77.51
2022-09-26T07:48:52.208Z,77.43
2022-09-26T07:51:20.728Z,76.83
2022-09-26T07:53:48.259Z,76.07
2022-09-26T07:56:16.781Z,76.34
2022-09-26T07:58:46.292Z,76.38
2022-09-26T08:01:15.577Z,75.33
2022-09-26T08:03:47.992Z,74.28
2022-09-26T08:06:17.665Z,73.49
2022-09-26T08:08:45.967Z,72.62
2022-09-26T08:11:15.937Z,71.88
2022-09-26T08:13:44.275Z,70.43
2022-09-26T08:16:15.237Z,69.49
2022-09-26T08:18:44.552Z,68.25
2022-09-26T08:21:12.274Z,66.96
2022-09-26T08:23:39.844Z,67.78
2022-09-26T08:26:08.531Z,67.70
2022-09-26T08:28:36.298Z,65.89
2022-09-26T08:31:05.167Z,66.27
2022-09-26T08:33:35.448Z,66.33
2022-09-26T08:36:10.079Z,66.64
2022-09-26T08:38:38.157Z,65.99
2022-09-26T08:41:22.791Z,65.66
2022-09-26T08:44:05.494Z,65.85
2022-09-26T08:46:50.334Z,67.00
2022-09-26T08:49:51.338Z,68.33
2022-09-26T08:52:28.192Z,68.97
2022-09-26T08:54:57.569Z,69.47
2022-09-26T08:57:35.346Z,68.27
2022-09-26T09:00:11.833Z,67.65
2022-09-26T09:02:46.438Z,66.67
2022-09-26T09:05:19.302Z,62.14
2022-09-26T09:07:51.177Z,58.59
2022-09-26T09:10:23.767Z,57.87
2022-09-26T09:13:01.700Z,59.19
2022-09-26T09:15:41.291Z,60.56
2022-09-26T09:18:22.609Z,61.00
2022-09-26T09:20:58.153Z,61.36
2022-09-26T09:23:40.630Z,60.63
2022-09-26T09:29:19.011Z,58.36
2022-09-26T09:31:48.209Z,58.53
2022-09-26T09:34:26.270Z,58.28
2022-09-26T09:36:58.969Z,58.45
2022-09-26T09:39:34.405Z,58.41
2022-09-26T09:42:07.659Z,58.38
2022-09-26T09:44:46.470Z,58.11
2022-09-26T09:47:16.470Z,57.97
2022-09-26T09:49:45.034Z,58.39
2022-09-26T09:52:26.436Z,58.38
2022-09-26T09:55:07.848Z,59.65
2022-09-26T09:57:54.289Z,60.67
2022-09-26T10:00:24.047Z,61.22
2022-09-26T10:03:01.213Z,61.49
2022-09-26T10:05:41.664Z,61.50
2022-09-26T10:08:13.863Z,61.16
2022-09-26T10:10:48.938Z,59.84
2022-09-26T10:13:17.874Z,59.71
2022-09-26T10:15:57.958Z,59.67
2022-09-26T10:18:27.016Z,59.74
2022-09-26T10:20:57.227Z,59.23
2022-09-26T10:23:31.341Z,58.88
2022-09-26T10:26:03.586Z,57.69
2022-09-26T10:28:35.859Z,57.41
2022-09-26T10:31:08.279Z,56.33
2022-09-26T10:33:38.586Z,55.73
2022-09-26T10:36:19.674Z,54.92
2022-09-26T10:39:16.004Z,55.60
2022-09-26T10:41:46.712Z,54.83
2022-09-26T10:44:26.479Z,51.75
2022-09-26T10:47:00.187Z,50.68
2022-09-26T10:49:34.749Z,50.57
2022-09-26T10:52:18.417Z,49.76
2022-09-26T10:54:55.628Z,49.46
2022-09-26T10:57:29.433Z,50.04
2022-09-26T11:00:00.309Z,49.97
2022-09-26T11:02:29.469Z,50.49
2022-09-26T11:05:19.946Z,50.80
2022-09-26T11:07:49.339Z,51.87
2022-09-26T11:10:25.070Z,51.74
2022-09-26T11:12:59.789Z,51.77
2022-09-26T11:15:28.640Z,52.89
2022-09-26T11:17:56.727Z,52.70
2022-09-26T11:20:40.531Z,50.77
2022-09-26T11:23:17.605Z,49.86
2022-09-26T11:25:58.175Z,49.87
2022-09-26T11:28:34.225Z,49.93
2022-09-26T11:33:51.306Z,50.15
2022-09-26T11:36:33.023Z,50.96
2022-09-26T11:39:07.254Z,49.78
2022-09-26T11:41:47.119Z,50.43
2022-09-26T11:44:42.162Z,51.17
2022-09-26T11:47:36.667Z,49.82
2022-09-26T11:50:23.226Z,46.87
2022-09-26T11:53:06.589Z,46.56
2022-09-26T11:55:45.472Z,46.75
2022-09-26T11:58:24.954Z,47.55
2022-09-26T12:01:05.454Z,47.95
2022-09-26T12:04:01.594Z,47.94
2022-09-26T12:06:34.883Z,47.73
2022-09-26T12:09:18.614Z,48.83
2022-09-26T12:11:57.978Z,49.79
2022-09-26T12:14:39.227Z,50.35
2022-09-26T12:17:19.007Z,51.07
2022-09-26T12:19:52.411Z,50.55
2022-09-26T12:22:32.150Z,50.77
2022-09-26T12:25:34.419Z,50.69
2022-09-26T12:28:17.918Z,51.21
2022-09-26T12:30:53.486Z,52.36
2022-09-26T12:33:47.400Z,52.77
2022-09-26T12:36:24.053Z,53.74
2022-09-26T12:39:13.077Z,53.75
2022-09-26T12:42:07.892Z,54.19
2022-09-26T12:45:10.618Z,52.83
2022-09-26T12:48:14.543Z,54.09
2022-09-26T12:50:52.467Z,54.69
2022-09-26T12:53:39.389Z,55.78
2022-09-26T12:56:11.037Z,56.55
2022-09-26T12:58:55.235Z,57.09
2022-09-26T13:01:47.563Z,57.58
2022-09-26T13:04:33.103Z,58.20
2022-09-26T13:07:19.894Z,59.08
2022-09-26T13:10:11.043Z,58.60
2022-09-26T13:12:53.796Z,58.34
2022-09-26T13:15:28.934Z,58.43
2022-09-26T13:18:01.822Z,58.19
2022-09-26T13:20:36.188Z,57.85
2022-09-26T13:23:09.953Z,58.25
2022-09-26T13:25:47.190Z,57.99
2022-09-26T13:28:20.731Z,58.16
2022-09-26T13:30:53.531Z,58.19
2022-09-26T13:33:25.790Z,58.51
2022-09-26T13:35:56.621Z,58.18
2022-09-26T13:38:39.104Z,58.86
2022-09-26T13:41:22.124Z,58.91
2022-09-26T13:44:01.489Z,59.00
2022-09-26T13:46:39.908Z,60.10
2022-09-26T13:49:31.675Z,59.99
2022-09-26T13:52:19.050Z,60.05
2022-09-26T13:54:58.882Z,59.56
2022-09-26T13:57:38.918Z,59.80
2022-09-26T14:00:49.007Z,60.35
2022-09-26T14:03:44.553Z,60.32
2022-09-26T14:06:28.173Z,60.40
2022-09-26T14:09:28.524Z,60.11
2022-09-26T14:12:31.620Z,60.53
2022-09-26T14:15:22.900Z,60.05
2022-09-26T14:18:13.732Z,60.18
2022-09-26T14:20:57.017Z,60.95
2022-09-26T14:23:39.527Z,60.62
2022-09-26T14:26:10.347Z,60.72
2022-09-26T14:28:40.663Z,60.72
2022-09-26T14:31:23.002Z,60.93
2022-09-26T14:33:53.883Z,61.78
2022-09-26T14:36:28.794Z,61.95
2022-09-26T14:38:56.667Z,62.25
2022-09-26T14:41:29.124Z,62.41
2022-09-26T14:44:03.965Z,61.64
2022-09-26T14:46:34.432Z,62.14
2022-09-26T14:49:05.491Z,62.81
2022-09-26T14:51:35.483Z,62.36
2022-09-26T14:54:06.376Z,62.54
2022-09-26T14:56:42.768Z,61.99
2022-09-26T14:59:40.129Z,61.47
2022-09-26T15:02:39.525Z,61.53
2022-09-26T15:05:22.647Z,62.06
2022-09-26T15:07:52.867Z,62.43
2022-09-26T15:10:37.645Z,62.44
2022-09-26T15:13:19.493Z,61.97
2022-09-26T15:16:08.052Z,62.02
2022-09-26T15:18:39.801Z,62.47
2022-09-26T15:21:17.809Z,62.17
2022-09-26T15:23:49.423Z,61.80
2022-09-26T15:26:20.851Z,62.38
2022-09-26T15:28:51.317Z,61.92
2022-09-26T15:31:23.547Z,62.24
2022-09-26T15:33:53.291Z,62.69
2022-09-26T15:36:21.798Z,62.93
2022-09-26T15:38:49.898Z,63.35
2022-09-26T15:41:40.334Z,63.08
2022-09-26T15:44:08.948Z,62.96
2022-09-26T15:46:38.186Z,63.10
2022-09-26T15:49:14.377Z,63.40
2022-09-26T15:51:43.781Z,63.57
2022-09-26T15:54:21.807Z,63.14
2022-09-26T15:56:51.978Z,62.91
2022-09-26T15:59:24.349Z,63.52
2022-09-26T16:01:54.167Z,64.02
2022-09-26T16:04:23.807Z,64.28
2022-09-26T16:06:57.472Z,64.19
2022-09-26T16:09:31.351Z,64.46
2022-09-26T16:12:01.160Z,64.67
2022-09-26T16:14:37.708Z,65.08
2022-09-26T16:17:20.225Z,64.81
2022-09-26T16:19:49.755Z,65.26
2022-09-26T16:22:36.634Z,65.35
2022-09-26T16:25:24.845Z,65.55
2022-09-26T16:27:59.377Z,65.65
2022-09-26T16:30:43.594Z,65.72
2022-09-26T16:33:27.358Z,65.90
2022-09-26T16:35:55.634Z,65.00
2022-09-26T16:38:28.108Z,64.93
2022-09-26T16:40:57.905Z,64.88
2022-09-26T16:43:28.845Z,66.06
2022-09-26T16:46:02.329Z,65.24
2022-09-26T16:48:43.275Z,64.58
2022-09-26T16:51:19.109Z,64.96
2022-09-26T16:53:48.800Z,64.45
2022-09-26T16:56:20.118Z,64.62
2022-09-26T16:58:51.925Z,65.06
2022-09-26T17:01:37.333Z,65.54
2022-09-26T17:04:12.901Z,66.04
2022-09-26T17:06:41.019Z,65.72
2022-09-26T17:09:16.750Z,65.74
2022-09-26T17:11:47.224Z,66.24
2022-09-26T17:14:17.918Z,66.29
2022-09-26T17:16:47.850Z,66.83
2022-09-26T17:19:18.045Z,66.62
2022-09-26T17:21:46.440Z,67.06
2022-09-26T17:24:15.818Z,66.83
2022-09-26T17:26:50.586Z,66.88
2022-09-26T17:29:22.595Z,67.46
2022-09-26T17:31:50.512Z,67.65
2022-09-26T17:34:21.019Z,67.96
2022-09-26T17:36:50.952Z,68.13
2022-09-26T17:39:22.104Z,68.75
2022-09-26T17:41:50.606Z,68.59
2022-09-26T17:44:36.486Z,69.67
2022-09-26T17:47:27.146Z,71.13
2022-09-26T17:49:57.216Z,72.46
2022-09-26T17:52:28.957Z,73.35
2022-09-26T17:55:04.446Z,74.08
2022-09-26T17:57:34.514Z,75.49
2022-09-26T18:00:07.493Z,75.60
2022-09-26T18:02:48.110Z,76.25
2022-09-26T18:05:22.641Z,76.60
2022-09-26T18:07:55.346Z,75.87
2022-09-26T18:10:34.544Z,75.31
2022-09-26T18:13:12.126Z,76.27
2022-09-26T18:15:41.477Z,77.47
2022-09-26T18:18:19.521Z,77.39
2022-09-26T18:20:49.316Z,77.75
2022-09-26T18:23:21.769Z,74.65
2022-09-26T18:25:52.628Z,73.12
2022-09-26T18:28:23.993Z,72.64
2022-09-26T18:30:58.060Z,72.48
2022-09-26T18:33:28.937Z,71.76
2022-09-26T18:35:58.795Z,70.51
2022-09-26T18:38:26.569Z,70.11
2022-09-26T18:40:58.272Z,69.25
2022-09-26T18:43:31.583Z,68.66
2022-09-26T18:45:59.893Z,68.83
2022-09-26T18:48:31.640Z,69.47
2022-09-26T18:51:01.327Z,69.71
2022-09-26T18:53:36.909Z,69.12
2022-09-26T18:56:22.613Z,68.34
2022-09-26T18:58:50.348Z,68.30
2022-09-26T19:01:26.076Z,68.34
2022-09-26T19:03:54.410Z,69.00
2022-09-26T19:06:26.700Z,68.94
2022-09-26T19:09:00.176Z,69.82
2022-09-26T19:11:29.478Z,70.33
2022-09-26T19:13:59.682Z,70.06
2022-09-26T19:16:27.543Z,70.59
2022-09-26T19:18:55.287Z,71.50
2022-09-26T19:21:32.090Z,71.75
2022-09-26T19:24:02.272Z,72.19
2022-09-26T19:26:33.464Z,71.04
2022-09-26T19:29:02.392Z,70.70
2022-09-26T19:31:30.395Z,70.37
2022-09-26T19:33:58.695Z,70.06
2022-09-26T19:36:28.094Z,69.90
2022-09-26T19:38:55.903Z,69.84
2022-09-26T19:41:23.565Z,69.12
2022-09-26T19:43:51.262Z,69.81
2022-09-26T19:46:25.750Z,68.70
2022-09-26T19:48:53.704Z,67.96
2022-09-26T19:51:21.426Z,68.77
2022-09-26T19:53:50.514Z,66.86
2022-09-26T19:56:18.521Z,66.59
2022-09-26T19:58:48.487Z,66.33
2022-09-26T20:01:19.103Z,66.09
2022-09-26T20:03:47.120Z,66.21
2022-09-26T20:06:17.542Z,65.19
2022-09-26T20:08:45.274Z,65.60
2022-09-26T20:11:14.433Z,66.39
2022-09-26T20:13:56.060Z,66.02
2022-09-26T20:16:24.524Z,66.60
2022-09-26T20:18:55.577Z,66.64
2022-09-26T20:21:26.345Z,67.15
2022-09-26T20:23:54.641Z,67.50
2022-09-26T20:26:24.813Z,68.30
2022-09-26T20:28:52.518Z,68.34
2022-09-26T20:31:22.658Z,68.94
2022-09-26T20:33:51.357Z,68.96
2022-09-26T20:36:25.343Z,68.67
2022-09-26T20:38:56.178Z,68.85
2022-09-26T20:41:31.281Z,69.67
2022-09-26T20:44:03.620Z,69.95
2022-09-26T20:46:34.158Z,68.84
2022-09-26T20:49:04.233Z,69.41
2022-09-26T20:51:34.439Z,69.54
2022-09-26T20:54:02.431Z,69.65
2022-09-26T20:56:31.641Z,70.06
2022-09-26T20:58:59.432Z,70.33
2022-09-26T21:01:28.980Z,69.97
2022-09-26T21:03:57.224Z,70.01
2022-09-26T21:06:31.248Z,69.44
2022-09-26T21:08:59.037Z,69.30
2022-09-26T21:11:27.053Z,69.27
2022-09-26T21:13:56.369Z,69.69
2022-09-26T21:16:24.173Z,68.94
2022-09-26T21:18:53.505Z,69.37
2022-09-26T21:21:23.424Z,69.94
2022-09-26T21:23:51.847Z,70.23
2022-09-26T21:26:21.016Z,69.58
2022-09-26T21:28:49.894Z,69.65
2022-09-26T21:31:24.363Z,69.95
2022-09-26T21:33:52.159Z,70.39
2022-09-26T21:36:21.603Z,70.92
2022-09-26T21:38:53.523Z,71.29
2022-09-26T21:41:22.006Z,71.43
2022-09-26T21:43:54.398Z,71.86
2022-09-26T21:46:24.381Z,72.85
2022-09-26T21:48:52.349Z,73.69
2022-09-26T21:51:21.313Z,74.17
2022-09-26T21:53:56.231Z,74.62
2022-09-26T21:56:30.022Z,75.36
2022-09-26T21:58:58.106Z,75.69
2022-09-26T22:01:27.221Z,76.75
2022-09-26T22:03:55.138Z,77.32
2022-09-26T22:06:23.036Z,78.15
2022-09-26T22:08:51.291Z,79.24
2022-09-26T22:11:19.007Z,80.39
2022-09-26T22:13:46.708Z,81.45
2022-09-26T22:16:15.232Z,81.97
2022-09-26T22:18:44.349Z,82.96
2022-09-26T22:21:12.658Z,83.34
2022-09-26T22:23:40.706Z,84.09
2022-09-26T22:26:08.944Z,84.49
2022-09-26T22:28:36.807Z,84.45
2022-09-26T22:31:06.269Z,84.88
2022-09-26T22:33:34.781Z,85.02
2022-09-26T22:36:04.506Z,85.26
2022-09-26T22:38:33.834Z,85.36
2022-09-26T22:41:03.856Z,85.46
2022-09-26T22:43:32.505Z,85.17
2022-09-26T22:46:04.558Z,85.90
2022-09-26T22:48:33.569Z,85.59
2022-09-26T22:51:01.546Z,85.51
2022-09-26T22:53:31.786Z,85.79
2022-09-26T22:56:05.266Z,86.11
2022-09-26T22:58:36.811Z,86.94
2022-09-26T23:01:06.431Z,86.21
2022-09-26T23:03:34.231Z,85.78
2022-09-26T23:06:02.637Z,85.66
2022-09-26T23:08:33.015Z,86.35
2022-09-26T23:11:02.125Z,86.81
2022-09-26T23:13:31.507Z,87.01
2022-09-26T23:16:06.938Z,86.67
2022-09-26T23:18:35.434Z,86.94
2022-09-26T23:21:07.779Z,87.32
2022-09-26T23:23:37.481Z,87.35
2022-09-26T23:26:06.186Z,87.33
2022-09-26T23:28:35.345Z,87.23
2022-09-26T23:31:07.521Z,87.33
2022-09-26T23:33:35.483Z,87.02
2022-09-26T23:36:03.473Z,87.31
2022-09-26T23:38:31.419Z,87.63
2022-09-26T23:41:00.772Z,88.02
2022-09-26T23:43:28.620Z,88.47
2022-09-26T23:45:56.512Z,88.81
2022-09-26T23:48:24.295Z,88.18
2022-09-26T23:50:52.088Z,88.73
2022-09-26T23:53:19.890Z,88.97
2022-09-26T23:55:47.641Z,89.55
2022-09-26T23:58:17.045Z,89.88
